createdAt,value
2022-10-17T00:00:45.657Z,18.77
2022-10-17T00:03:12.680Z,18.98
2022-10-17T00:05:44.198Z,19.11
2022-10-17T00:08:12.637Z,18.71
2022-10-17T00:10:40.052Z,18.94
2022-10-17T00:13:07.413Z,19.01
2022-10-17T00:15:34.047Z,18.78
2022-10-17T00:18:01.181Z,18.82
2022-10-17T00:20:30.491Z,18.70
2022-10-17T00:22:57.567Z,18.79
2022-10-17T00:25:24.170Z,18.73
2022-10-17T00:27:50.790Z,18.64
2022-10-17T00:30:18.596Z,18.46
2022-10-17T00:32:45.438Z,18.46
2022-10-17T00:35:12.123Z,18.46
2022-10-17T00:37:38.742Z,18.64
2022-10-17T00:40:09.887Z,18.36
2022-10-17T00:42:36.589Z,18.44
2022-10-17T00:45:26.680Z,18.27
2022-10-17T00:47:58.899Z,18.48
2022-10-17T00:50:26.254Z,18.53
2022-10-17T00:52:53.486Z,18.53
2022-10-17T00:55:31.338Z,18.40
2022-10-17T00:58:02.067Z,18.63
2022-10-17T01:00:28.807Z,18.39
2022-10-17T01:02:56.432Z,18.23
2022-10-17T01:05:23.350Z,18.36
2022-10-17T01:07:52.886Z,18.59
2022-10-17T01:13:07.657Z,18.34
2022-10-17T01:15:45.231Z,18.26
2022-10-17T01:18:39.557Z,18.37
2022-10-17T01:21:23.315Z,18.73
2022-10-17T01:24:08.538Z,18.61
2022-10-17T01:27:12.837Z,18.59
2022-10-17T01:30:12.300Z,18.78
2022-10-17T01:33:14.288Z,18.56
2022-10-17T01:36:06.165Z,18.47
2022-10-17T01:38:41.224Z,18.60
2022-10-17T01:41:23.763Z,18.42
2022-10-17T01:43:59.762Z,18.59
2022-10-17T01:46:38.686Z,18.66
2022-10-17T01:49:08.863Z,18.55
2022-10-17T01:52:00.906Z,18.54
2022-10-17T01:54:37.576Z,18.56
2022-10-17T01:57:08.650Z,18.75
2022-10-17T01:59:42.211Z,18.69
2022-10-17T02:02:10.080Z,18.78
2022-10-17T02:04:37.543Z,18.72
2022-10-17T02:07:12.853Z,18.63
2022-10-17T02:09:39.942Z,18.71
2022-10-17T02:12:06.509Z,18.84
2022-10-17T02:14:51.571Z,18.84
2022-10-17T02:18:02.424Z,18.88
2022-10-17T02:20:50.693Z,18.88
2022-10-17T02:23:20.277Z,18.90
2022-10-17T02:26:02.204Z,18.74
2022-10-17T02:28:50.538Z,18.90
2022-10-17T02:31:22.774Z,18.74
2022-10-17T02:33:59.094Z,18.62
2022-10-17T02:36:32.706Z,18.64
2022-10-17T02:39:01.710Z,18.71
2022-10-17T02:41:30.094Z,18.70
2022-10-17T02:44:00.108Z,18.49
2022-10-17T02:46:41.630Z,18.62
2022-10-17T02:49:20.857Z,18.59
2022-10-17T02:51:50.436Z,18.70
2022-10-17T02:54:23.203Z,18.58
2022-10-17T02:56:59.530Z,18.68
2022-10-17T02:59:29.570Z,18.54
2022-10-17T03:01:56.616Z,18.43
2022-10-17T03:04:23.566Z,18.60
2022-10-17T03:06:50.273Z,18.32
2022-10-17T03:09:19.470Z,18.51
2022-10-17T03:11:46.080Z,18.20
2022-10-17T03:14:17.619Z,18.36
2022-10-17T03:16:44.287Z,18.25
2022-10-17T03:19:13.579Z,18.39
2022-10-17T03:21:40.167Z,18.34
2022-10-17T03:24:07.184Z,18.41
2022-10-17T03:26:33.830Z,18.60
2022-10-17T03:29:02.071Z,18.47
2022-10-17T03:31:28.734Z,18.43
2022-10-17T03:33:55.364Z,18.38
2022-10-17T03:36:22.012Z,18.48
2022-10-17T03:38:57.853Z,18.45
2022-10-17T03:41:24.462Z,18.47
2022-10-17T03:43:53.476Z,18.27
2022-10-17T03:46:20.340Z,18.17
2022-10-17T03:48:46.890Z,18.38
2022-10-17T03:51:13.801Z,18.17
2022-10-17T03:53:44.116Z,18.48
2022-10-17T03:56:20.310Z,18.54
2022-10-17T03:58:47.354Z,18.30
2022-10-17T04:01:17.081Z,18.19
2022-10-17T04:03:44.481Z,18.29
2022-10-17T04:06:12.910Z,18.46
2022-10-17T04:08:39.750Z,18.28
2022-10-17T04:11:08.512Z,18.18
2022-10-17T04:13:35.927Z,18.42
2022-10-17T04:16:08.480Z,18.60
2022-10-17T04:18:52.072Z,18.29
2022-10-17T04:21:23.678Z,18.59
2022-10-17T04:23:58.670Z,18.68
2022-10-17T04:26:28.144Z,18.33
2022-10-17T04:29:01.159Z,18.44
2022-10-17T04:31:27.806Z,18.43
2022-10-17T04:33:54.425Z,18.45
2022-10-17T04:36:21.282Z,18.47
2022-10-17T04:41:31.690Z,18.38
2022-10-17T04:44:00.717Z,18.30
2022-10-17T04:46:27.606Z,18.31
2022-10-17T04:49:15.540Z,18.29
2022-10-17T04:51:44.391Z,18.42
2022-10-17T04:54:11.345Z,18.30
2022-10-17T04:56:50.765Z,18.37
2022-10-17T04:59:17.481Z,18.36
2022-10-17T05:01:45.448Z,18.27
2022-10-17T05:04:12.011Z,18.57
2022-10-17T05:06:38.638Z,18.33
2022-10-17T05:09:05.424Z,18.37
2022-10-17T05:11:32.199Z,18.59
2022-10-17T05:14:02.377Z,18.59
2022-10-17T05:16:29.799Z,18.57
2022-10-17T05:19:00.066Z,18.54
2022-10-17T05:21:30.380Z,18.21
2022-10-17T05:23:57.529Z,18.46
2022-10-17T05:26:24.686Z,18.46
2022-10-17T05:28:52.849Z,18.23
2022-10-17T05:31:22.097Z,18.33
2022-10-17T05:33:48.738Z,18.36
2022-10-17T05:36:16.545Z,18.66
2022-10-17T05:38:43.230Z,18.35
2022-10-17T05:41:10.505Z,18.51
2022-10-17T05:43:38.693Z,18.35
2022-10-17T05:46:09.044Z,18.53
2022-10-17T05:48:42.600Z,18.63
2022-10-17T05:51:12.053Z,18.20
2022-10-17T05:53:42.808Z,18.16
2022-10-17T05:56:12.392Z,18.48
2022-10-17T05:58:55.204Z,18.74
2022-10-17T06:01:24.702Z,18.48
2022-10-17T06:03:53.581Z,18.58
2022-10-17T06:06:22.939Z,18.63
2022-10-17T06:08:49.598Z,18.67
2022-10-17T06:11:16.251Z,18.42
2022-10-17T06:13:51.744Z,18.72
2022-10-17T06:16:18.468Z,18.58
2022-10-17T06:18:45.097Z,18.58
2022-10-17T06:21:15.563Z,18.77
2022-10-17T06:23:44.374Z,18.68
2022-10-17T06:28:58.243Z,18.57
2022-10-17T06:31:34.674Z,18.76
2022-10-17T06:34:01.337Z,18.78
2022-10-17T06:36:34.547Z,18.53
2022-10-17T06:39:01.128Z,18.89
2022-10-17T06:41:27.980Z,18.93
2022-10-17T06:43:54.461Z,19.06
2022-10-17T06:46:21.530Z,19.18
2022-10-17T06:48:48.192Z,19.15
2022-10-17T06:51:15.028Z,19.15
2022-10-17T06:53:41.872Z,19.14
2022-10-17T06:56:10.297Z,19.31
2022-10-17T06:58:39.688Z,19.25
2022-10-17T07:01:11.886Z,19.22
2022-10-17T07:03:46.653Z,19.01
2022-10-17T07:06:13.188Z,19.07
2022-10-17T07:08:43.609Z,18.95
2022-10-17T07:11:12.177Z,19.03
2022-10-17T07:13:39.658Z,19.10
2022-10-17T07:16:06.858Z,19.16
2022-10-17T07:18:33.715Z,19.49
2022-10-17T07:21:00.930Z,19.88
2022-10-17T07:23:28.052Z,20.20
2022-10-17T07:25:59.884Z,20.53
2022-10-17T07:28:26.682Z,20.68
2022-10-17T07:30:54.443Z,20.86
2022-10-17T07:33:22.026Z,21.00
2022-10-17T07:35:49.102Z,20.73
2022-10-17T07:38:16.057Z,21.09
2022-10-17T07:40:43.068Z,21.16
2022-10-17T07:43:10.074Z,21.26
2022-10-17T07:45:36.995Z,21.25
2022-10-17T07:48:04.075Z,21.14
2022-10-17T07:50:31.775Z,21.50
2022-10-17T07:53:05.828Z,21.74
2022-10-17T07:55:32.319Z,21.85
2022-10-17T07:58:00.500Z,21.91
2022-10-17T08:00:28.521Z,21.86
2022-10-17T08:02:55.158Z,22.34
2022-10-17T08:05:21.776Z,22.54
2022-10-17T08:07:48.423Z,22.76
2022-10-17T08:10:16.138Z,23.07
2022-10-17T08:12:42.781Z,23.21
2022-10-17T08:15:10.297Z,23.13
2022-10-17T08:17:38.573Z,22.97
2022-10-17T08:20:06.550Z,23.07
2022-10-17T08:22:33.316Z,23.12
2022-10-17T08:24:59.811Z,23.33
2022-10-17T08:27:27.960Z,23.59
2022-10-17T08:29:54.873Z,23.92
2022-10-17T08:32:23.631Z,23.74
2022-10-17T08:34:50.516Z,23.51
2022-10-17T08:37:17.428Z,23.24
2022-10-17T08:39:44.521Z,23.15
2022-10-17T08:42:32.908Z,23.03
2022-10-17T08:45:19.673Z,22.50
2022-10-17T08:47:49.952Z,22.23
2022-10-17T08:50:39.397Z,21.96
2022-10-17T08:53:22.007Z,21.98
2022-10-17T08:55:53.506Z,22.25
2022-10-17T08:58:33.336Z,21.98
2022-10-17T09:01:42.848Z,21.92
2022-10-17T09:04:46.124Z,22.05
2022-10-17T09:07:22.815Z,22.24
2022-10-17T09:10:21.474Z,23.14
2022-10-17T09:13:13.013Z,23.93
2022-10-17T09:15:55.347Z,24.30
2022-10-17T09:18:33.037Z,25.01
2022-10-17T09:21:21.064Z,24.65
2022-10-17T09:24:09.873Z,24.25
2022-10-17T09:26:44.432Z,24.29
2022-10-17T09:29:18.657Z,24.83
2022-10-17T09:32:02.880Z,25.39
2022-10-17T09:34:31.633Z,25.48
2022-10-17T09:37:00.381Z,25.25
2022-10-17T09:39:29.272Z,25.43
2022-10-17T09:41:59.186Z,25.62
2022-10-17T09:44:58.320Z,26.31
2022-10-17T09:47:47.600Z,26.55
2022-10-17T09:50:27.158Z,26.33
2022-10-17T09:52:55.656Z,26.48
2022-10-17T09:55:39.411Z,26.13
2022-10-17T09:58:07.921Z,26.14
2022-10-17T10:00:41.648Z,26.45
2022-10-17T10:03:20.485Z,26.15
2022-10-17T10:06:06.847Z,26.14
2022-10-17T10:08:49.586Z,26.26
2022-10-17T10:11:17.771Z,26.15
2022-10-17T10:13:46.284Z,26.39
2022-10-17T10:16:32.761Z,26.45
2022-10-17T10:18:59.580Z,26.86
2022-10-17T10:21:27.507Z,26.97
2022-10-17T10:24:03.351Z,26.32
2022-10-17T10:26:33.008Z,26.23
2022-10-17T10:29:20.443Z,26.30
2022-10-17T10:31:48.378Z,27.03
2022-10-17T10:34:27.790Z,27.66
2022-10-17T10:37:17.017Z,27.85
2022-10-17T10:39:50.421Z,27.26
2022-10-17T10:42:25.234Z,27.48
2022-10-17T10:44:54.558Z,27.57
2022-10-17T10:47:28.175Z,28.01
2022-10-17T10:50:25.065Z,28.64
2022-10-17T10:52:56.825Z,28.90
2022-10-17T10:55:50.746Z,28.05
2022-10-17T10:58:35.918Z,27.78
2022-10-17T11:01:23.739Z,27.75
2022-10-17T11:04:02.965Z,27.64
2022-10-17T11:06:36.392Z,28.28
2022-10-17T11:09:16.177Z,28.91
2022-10-17T11:11:48.674Z,28.52
2022-10-17T11:14:26.040Z,28.59
2022-10-17T11:17:05.792Z,28.37
2022-10-17T11:19:43.973Z,28.44
2022-10-17T11:22:23.985Z,27.84
2022-10-17T11:25:00.857Z,28.10
2022-10-17T11:27:31.655Z,27.75
2022-10-17T11:29:58.541Z,27.20
2022-10-17T11:32:32.632Z,26.83
2022-10-17T11:35:07.875Z,26.58
2022-10-17T11:37:40.940Z,26.40
2022-10-17T11:40:21.970Z,26.42
2022-10-17T11:43:04.809Z,26.88
2022-10-17T11:45:36.879Z,27.34
2022-10-17T11:48:44.081Z,27.60
2022-10-17T11:54:17.790Z,27.87
2022-10-17T11:57:08.529Z,28.05
2022-10-17T11:59:58.045Z,28.01
2022-10-17T12:02:36.707Z,27.69
2022-10-17T12:05:33.089Z,28.02
2022-10-17T12:08:18.420Z,27.85
2022-10-17T12:10:53.743Z,27.79
2022-10-17T12:13:29.495Z,27.59
2022-10-17T12:16:17.489Z,27.49
2022-10-17T12:18:44.850Z,27.33
2022-10-17T12:21:11.588Z,27.44
2022-10-17T12:23:39.979Z,27.11
2022-10-17T12:26:09.509Z,26.84
2022-10-17T12:28:44.412Z,26.62
2022-10-17T12:31:29.683Z,26.56
2022-10-17T12:34:04.638Z,26.68
2022-10-17T12:36:31.079Z,26.97
2022-10-17T12:39:03.482Z,26.74
2022-10-17T12:41:39.347Z,26.56
2022-10-17T12:44:15.200Z,26.68
2022-10-17T12:46:51.613Z,27.16
2022-10-17T12:49:48.387Z,27.65
2022-10-17T12:52:31.389Z,27.30
2022-10-17T12:55:12.645Z,27.50
2022-10-17T12:57:55.819Z,27.52
2022-10-17T13:00:29.484Z,27.35
2022-10-17T13:03:21.758Z,27.03
2022-10-17T13:06:13.731Z,27.61
2022-10-17T13:08:49.774Z,28.04
2022-10-17T13:11:25.706Z,27.67
2022-10-17T13:13:59.211Z,26.98
2022-10-17T13:16:35.678Z,26.47
2022-10-17T13:19:11.840Z,26.04
2022-10-17T13:21:38.636Z,25.91
2022-10-17T13:24:29.682Z,25.85
2022-10-17T13:26:56.608Z,26.00
2022-10-17T13:29:25.718Z,26.01
2022-10-17T13:32:05.969Z,26.28
2022-10-17T13:34:34.449Z,26.14
2022-10-17T13:37:04.576Z,25.75
2022-10-17T13:42:27.522Z,25.38
2022-10-17T13:44:55.404Z,25.17
2022-10-17T13:47:29.534Z,25.20
2022-10-17T13:49:58.019Z,25.25
2022-10-17T13:52:28.937Z,25.74
2022-10-17T13:55:06.939Z,25.88
2022-10-17T13:57:33.899Z,26.40
2022-10-17T14:00:15.487Z,26.76
2022-10-17T14:02:42.339Z,26.97
2022-10-17T14:05:18.376Z,27.14
2022-10-17T14:08:11.915Z,27.35
2022-10-17T14:10:41.198Z,26.79
2022-10-17T14:13:19.157Z,26.32
2022-10-17T14:15:46.550Z,26.33
2022-10-17T14:18:26.954Z,25.95
2022-10-17T14:23:43.523Z,25.39
2022-10-17T14:26:17.984Z,25.27
2022-10-17T14:28:47.653Z,25.06
2022-10-17T14:31:25.022Z,25.02
2022-10-17T14:33:53.474Z,24.95
2022-10-17T14:36:29.463Z,24.99
2022-10-17T14:38:56.763Z,24.96
2022-10-17T14:41:42.492Z,24.84
2022-10-17T14:44:20.754Z,24.82
2022-10-17T14:46:51.700Z,24.79
2022-10-17T14:49:28.165Z,24.71
2022-10-17T14:52:33.750Z,24.72
2022-10-17T14:55:20.342Z,24.66
2022-10-17T14:57:46.878Z,24.53
2022-10-17T15:00:19.350Z,24.36
2022-10-17T15:02:47.431Z,24.32
2022-10-17T15:05:14.916Z,24.27
2022-10-17T15:07:42.795Z,24.14
2022-10-17T15:10:28.596Z,24.01
2022-10-17T15:12:57.564Z,23.99
2022-10-17T15:15:32.357Z,23.84
2022-10-17T15:17:59.815Z,23.84
2022-10-17T15:20:28.220Z,23.80
2022-10-17T15:22:55.930Z,23.69
2022-10-17T15:25:23.349Z,23.63
2022-10-17T15:27:50.032Z,23.67
2022-10-17T15:30:22.386Z,23.68
2022-10-17T15:32:49.798Z,23.76
2022-10-17T15:35:17.484Z,23.82
2022-10-17T15:37:46.818Z,23.57
2022-10-17T15:40:22.354Z,23.56
2022-10-17T15:42:49.318Z,23.63
2022-10-17T15:45:18.737Z,23.65
2022-10-17T15:47:55.434Z,23.51
2022-10-17T15:50:22.638Z,23.34
2022-10-17T15:52:51.125Z,23.47
2022-10-17T15:55:18.566Z,23.48
2022-10-17T15:57:47.520Z,23.44
2022-10-17T16:00:22.164Z,23.28
2022-10-17T16:02:49.861Z,23.16
2022-10-17T16:05:19.685Z,23.14
2022-10-17T16:07:46.919Z,23.17
2022-10-17T16:10:14.860Z,23.13
2022-10-17T16:12:41.530Z,23.23
2022-10-17T16:15:15.066Z,23.36
2022-10-17T16:17:41.887Z,23.33
2022-10-17T16:20:08.771Z,23.23
2022-10-17T16:22:38.283Z,23.35
2022-10-17T16:25:09.954Z,23.52
2022-10-17T16:27:37.858Z,23.60
2022-10-17T16:30:06.646Z,23.76
2022-10-17T16:32:34.253Z,23.83
2022-10-17T16:35:01.675Z,23.73
2022-10-17T16:37:28.512Z,23.60
2022-10-17T16:39:55.073Z,23.51
2022-10-17T16:42:21.946Z,23.44
2022-10-17T16:44:50.539Z,23.22
2022-10-17T16:47:18.443Z,23.03
2022-10-17T16:49:45.547Z,22.99
2022-10-17T16:52:12.186Z,22.74
2022-10-17T16:54:38.729Z,22.57
2022-10-17T16:57:05.530Z,22.42
2022-10-17T16:59:32.046Z,22.31
2022-10-17T17:01:58.560Z,22.21
2022-10-17T17:04:25.137Z,22.18
2022-10-17T17:06:51.807Z,22.06
2022-10-17T17:09:18.336Z,21.80
2022-10-17T17:11:44.827Z,21.70
2022-10-17T17:14:12.596Z,21.77
2022-10-17T17:16:39.154Z,21.75
2022-10-17T17:19:12.601Z,21.72
2022-10-17T17:21:39.521Z,21.80
2022-10-17T17:24:11.689Z,21.66
2022-10-17T17:26:38.970Z,21.61
2022-10-17T17:29:05.726Z,21.68
2022-10-17T17:31:34.137Z,21.59
2022-10-17T17:34:01.491Z,21.37
2022-10-17T17:36:31.441Z,21.39
2022-10-17T17:39:01.362Z,21.42
2022-10-17T17:41:28.746Z,21.08
2022-10-17T17:43:58.876Z,21.15
2022-10-17T17:46:25.975Z,21.45
2022-10-17T17:48:54.014Z,21.42
2022-10-17T17:51:28.424Z,21.30
2022-10-17T17:53:56.557Z,21.50
2022-10-17T17:56:25.780Z,21.52
2022-10-17T17:59:00.719Z,21.30
2022-10-17T18:01:30.350Z,21.21
2022-10-17T18:04:01.712Z,21.01
2022-10-17T18:06:29.067Z,20.80
2022-10-17T18:08:58.116Z,21.00
2022-10-17T18:11:26.508Z,21.18
2022-10-17T18:13:58.147Z,21.15
2022-10-17T18:16:26.832Z,21.24
2022-10-17T18:19:04.122Z,20.82
2022-10-17T18:21:33.498Z,20.83
2022-10-17T18:24:00.455Z,20.92
2022-10-17T18:26:27.641Z,20.93
2022-10-17T18:28:54.529Z,21.13
2022-10-17T18:31:28.642Z,21.03
2022-10-17T18:33:56.950Z,21.00
2022-10-17T18:36:26.021Z,20.71
2022-10-17T18:38:56.344Z,20.85
2022-10-17T18:41:25.910Z,20.85
2022-10-17T18:43:55.358Z,20.81
2022-10-17T18:46:28.425Z,20.91
2022-10-17T18:48:56.212Z,20.72
2022-10-17T18:54:43.627Z,20.74
2022-10-17T18:57:10.554Z,20.85
2022-10-17T18:59:38.089Z,20.78
2022-10-17T19:02:04.943Z,20.72
2022-10-17T19:04:31.738Z,20.73
2022-10-17T19:06:58.488Z,20.70
2022-10-17T19:09:25.387Z,20.57
2022-10-17T19:11:53.252Z,20.52
2022-10-17T19:14:19.862Z,20.47
2022-10-17T19:16:49.128Z,20.44
2022-10-17T19:19:21.091Z,20.50
2022-10-17T19:21:49.927Z,20.34
2022-10-17T19:24:27.915Z,20.44
2022-10-17T19:26:58.997Z,20.34
2022-10-17T19:29:28.123Z,20.47
2022-10-17T19:34:22.500Z,20.25
2022-10-17T19:36:49.299Z,20.08
2022-10-17T19:39:19.148Z,20.32
2022-10-17T19:41:47.726Z,20.33
2022-10-17T19:44:16.104Z,20.01
2022-10-17T19:46:46.859Z,20.04
2022-10-17T19:49:14.208Z,20.09
2022-10-17T19:51:42.006Z,20.06
2022-10-17T19:54:09.491Z,20.10
2022-10-17T19:56:38.113Z,20.07
2022-10-17T19:59:08.465Z,20.03
2022-10-17T20:01:41.326Z,19.99
2022-10-17T20:04:09.367Z,20.15
2022-10-17T20:06:36.270Z,19.96
2022-10-17T20:09:04.343Z,19.90
2022-10-17T20:11:31.043Z,19.91
2022-10-17T20:14:00.163Z,19.98
2022-10-17T20:16:29.849Z,19.82
2022-10-17T20:19:01.411Z,19.86
2022-10-17T20:21:31.591Z,19.78
2022-10-17T20:23:59.907Z,19.96
2022-10-17T20:26:42.867Z,20.00
2022-10-17T20:29:15.049Z,19.77
2022-10-17T20:31:43.201Z,19.71
2022-10-17T20:34:13.744Z,19.85
2022-10-17T20:36:40.758Z,19.77
2022-10-17T20:39:07.871Z,19.77
2022-10-17T20:41:34.854Z,19.81
2022-10-17T20:44:04.634Z,19.89
2022-10-17T20:46:44.689Z,19.66
2022-10-17T20:49:20.382Z,19.81
2022-10-17T20:51:46.979Z,19.56
2022-10-17T20:54:13.631Z,19.73
2022-10-17T20:57:01.102Z,19.79
2022-10-17T20:59:39.032Z,19.78
2022-10-17T21:02:06.610Z,19.79
2022-10-17T21:04:45.895Z,19.69
2022-10-17T21:07:13.237Z,19.68
2022-10-17T21:09:40.004Z,19.61
2022-10-17T21:12:06.935Z,19.63
2022-10-17T21:14:33.726Z,19.46
2022-10-17T21:17:04.725Z,19.45
2022-10-17T21:19:31.936Z,19.56
2022-10-17T21:21:58.539Z,19.38
2022-10-17T21:24:25.114Z,19.51
2022-10-17T21:26:55.531Z,19.43
2022-10-17T21:29:23.352Z,19.60
2022-10-17T21:31:50.340Z,19.75
2022-10-17T21:34:24.597Z,19.57
2022-10-17T21:36:52.025Z,19.49
2022-10-17T21:39:18.910Z,19.49
2022-10-17T21:41:45.514Z,19.65
2022-10-17T21:44:14.949Z,19.78
2022-10-17T21:46:42.315Z,19.79
2022-10-17T21:49:10.697Z,19.83
2022-10-17T21:51:37.689Z,19.66
2022-10-17T21:54:05.780Z,19.55
2022-10-17T21:56:34.729Z,19.64
2022-10-17T21:59:01.330Z,19.38
2022-10-17T22:01:33.337Z,19.43
2022-10-17T22:04:02.715Z,19.60
2022-10-17T22:06:40.563Z,19.51
2022-10-17T22:09:14.490Z,19.45
2022-10-17T22:11:41.643Z,19.65
2022-10-17T22:14:12.579Z,19.64
2022-10-17T22:16:39.487Z,19.55
2022-10-17T22:19:07.513Z,19.58
2022-10-17T22:21:36.207Z,19.57
2022-10-17T22:24:06.067Z,19.30
2022-10-17T22:26:36.398Z,19.40
2022-10-17T22:29:04.571Z,19.33
2022-10-17T22:31:31.765Z,19.28
2022-10-17T22:33:58.413Z,19.34
2022-10-17T22:36:25.119Z,19.47
2022-10-17T22:38:52.041Z,19.32
2022-10-17T22:41:18.822Z,19.20
2022-10-17T22:43:45.405Z,19.08
2022-10-17T22:46:13.755Z,18.91
2022-10-17T22:48:40.574Z,19.27
2022-10-17T22:51:07.460Z,19.26
2022-10-17T22:53:35.184Z,19.25
2022-10-17T22:56:10.744Z,19.15
2022-10-17T22:58:37.772Z,19.10
2022-10-17T23:01:06.343Z,19.12
2022-10-17T23:03:33.797Z,19.16
2022-10-17T23:06:00.795Z,18.96
2022-10-17T23:08:28.466Z,18.95
2022-10-17T23:10:55.190Z,19.10
2022-10-17T23:13:22.083Z,19.12
2022-10-17T23:15:56.732Z,19.20
2022-10-17T23:18:25.603Z,19.27
2022-10-17T23:20:53.138Z,19.32
2022-10-17T23:23:20.769Z,19.31
2022-10-17T23:25:51.543Z,19.14
2022-10-17T23:28:18.615Z,19.19
2022-10-17T23:30:45.409Z,19.15
2022-10-17T23:33:13.238Z,19.28
2022-10-17T23:35:40.570Z,19.32
2022-10-17T23:38:07.358Z,19.12
2022-10-17T23:40:35.356Z,19.08
2022-10-17T23:43:02.823Z,19.18
2022-10-17T23:45:31.303Z,19.14
2022-10-17T23:48:01.183Z,19.12
2022-10-17T23:50:27.726Z,19.32
2022-10-17T23:52:54.294Z,19.40
2022-10-17T23:55:20.895Z,19.26
2022-10-17T23:57:47.507Z,19.04
